Time;durP1;ratioP1;P1;durP2;ratioP2;P2;SDS_P1;SDS_P2;PMS_P1;PMS_P2;Temp;Humidity;BMP_temperature;BMP_pressure;BME280_temperature;BME280_humidity;BME280_pressure;Samples;Min_cycle;Max_cycle;Signal;HPM_P1;HPM_P2
2022/12/13 04:02:11;;;;;;;42.92;17.38;;;-3.50;99.90;;;;;;6196198;23;20025;-77
2022/12/13 04:04:37;;;;;;;43.47;17.92;;;-3.50;99.90;;;;;;6168010;23;20013;-77
2022/12/13 04:07:02;;;;;;;35.45;17.27;;;-3.50;99.90;;;;;;6192344;23;20060;-78
2022/12/13 04:09:28;;;;;;;44.83;18.10;;;-3.50;99.90;;;;;;6191580;23;20009;-79
2022/12/13 04:14:38;;;;;;;43.45;18.75;;;-3.50;99.90;;;;;;6218548;23;20320;-80
2022/12/13 04:17:03;;;;;;;41.83;17.65;;;-3.50;99.90;;;;;;6191549;23;20013;-79
2022/12/13 04:19:29;;;;;;;38.25;18.15;;;-3.60;99.90;;;;;;6218244;23;20023;-79
2022/12/13 04:21:54;;;;;;;39.03;17.17;;;-3.60;99.90;;;;;;6191236;23;20020;-79
2022/12/13 04:24:24;;;;;;;47.85;18.27;;;-3.60;99.90;;;;;;6191204;23;20016;-79
2022/12/13 04:26:49;;;;;;;39.30;18.23;;;-3.70;99.90;;;;;;6191493;23;20020;-78
2022/12/13 04:29:15;;;;;;;45.97;19.25;;;-3.70;99.90;;;;;;6191157;23;20016;-79
2022/12/13 04:31:41;;;;;;;39.40;18.63;;;-3.70;99.90;;;;;;6191821;23;20017;-79
2022/12/13 04:34:07;;;;;;;44.15;18.10;;;-3.70;99.90;;;;;;6191012;23;20315;-79
2022/12/13 04:36:33;;;;;;;44.97;19.45;;;-3.70;99.90;;;;;;6191345;23;20016;-79
2022/12/13 04:39:08;;;;;;;37.92;17.13;;;-3.70;99.90;;;;;;6191475;23;20017;-80
2022/12/13 04:41:38;;;;;;;44.33;19.30;;;-3.70;99.90;;;;;;6165965;23;20013;-79
2022/12/13 04:44:05;;;;;;;42.08;18.35;;;-3.70;99.90;;;;;;6190558;23;20017;-78
2022/12/13 04:46:31;;;;;;;53.85;18.35;;;-3.70;99.90;;;;;;6217544;23;20016;-79
2022/12/13 04:48:57;;;;;;;57.83;19.05;;;-3.70;99.90;;;;;;6190391;23;20019;-78
2022/12/13 04:51:23;;;;;;;42.17;18.02;;;-3.70;99.90;;;;;;6217007;23;20381;-79
2022/12/13 04:53:48;;;;;;;41.33;18.67;;;-3.70;99.90;;;;;;6165637;23;20035;-79
2022/12/13 04:56:14;;;;;;;44.33;18.08;;;-3.70;99.90;;;;;;6217034;23;20008;-79
2022/12/13 04:58:40;;;;;;;36.33;17.60;;;-3.70;99.90;;;;;;6189673;23;20016;-78
2022/12/13 05:01:07;;;;;;;42.58;17.63;;;-3.70;99.90;;;;;;6190068;23;20023;-78
2022/12/13 05:03:33;;;;;;;39.90;19.20;;;-3.70;99.90;;;;;;6190424;23;20012;-78
2022/12/13 05:05:58;;;;;;;41.38;18.63;;;-3.70;99.90;;;;;;6190656;23;20016;-79
2022/12/13 05:08:24;;;;;;;41.85;18.38;;;-3.70;99.90;;;;;;6216871;23;20063;-78
2022/12/13 05:10:50;;;;;;;42.50;18.05;;;-3.80;99.90;;;;;;6190058;23;20455;-79
2022/12/13 05:13:16;;;;;;;41.40;17.55;;;-3.80;99.90;;;;;;6190193;23;20024;-79
2022/12/13 05:15:41;;;;;;;42.15;18.67;;;-3.80;99.90;;;;;;6216713;23;20008;-77
2022/12/13 05:18:07;;;;;;;44.83;19.48;;;-3.70;99.90;;;;;;6190508;23;20031;-78
2022/12/13 05:20:37;;;;;;;40.28;18.02;;;-3.70;99.90;;;;;;6189784;23;20020;-79
2022/12/13 05:23:02;;;;;;;42.90;18.80;;;-3.70;99.90;;;;;;6189942;23;20013;-77
2022/12/13 05:25:28;;;;;;;40.17;18.23;;;-3.70;99.90;;;;;;6189983;23;20020;-79
2022/12/13 05:27:56;;;;;;;38.47;17.38;;;-3.80;99.90;;;;;;6217044;23;20016;-79
2022/12/13 05:30:21;;;;;;;39.45;17.73;;;-3.80;99.90;;;;;;6189734;23;20434;-80
2022/12/13 05:32:47;;;;;;;43.13;17.98;;;-3.80;99.90;;;;;;6216207;23;20019;-80
2022/12/13 05:35:14;;;;;;;41.90;19.33;;;-3.80;99.90;;;;;;6216730;23;20011;-78
2022/12/13 05:37:40;;;;;;;41.60;18.15;;;-3.80;99.90;;;;;;6216703;23;20066;-79
2022/12/13 05:40:07;;;;;;;45.40;19.65;;;-3.90;99.90;;;;;;6189383;23;20020;-78
2022/12/13 05:42:33;;;;;;;42.85;18.38;;;-3.90;99.90;;;;;;6189782;23;20013;-78
2022/12/13 05:44:58;;;;;;;43.60;18.33;;;-3.90;99.90;;;;;;6216671;23;20078;-79
2022/12/13 05:47:24;;;;;;;38.83;18.75;;;-3.90;99.90;;;;;;6216315;23;20407;-79
2022/12/13 05:49:50;;;;;;;39.55;18.17;;;-3.90;99.90;;;;;;6216257;23;20009;-78
2022/12/13 05:52:21;;;;;;;39.92;18.02;;;-3.90;99.90;;;;;;6215922;23;20048;-78
2022/12/13 05:54:47;;;;;;;43.92;19.05;;;-3.90;99.90;;;;;;6189700;23;20008;-79
2022/12/13 05:57:13;;;;;;;46.55;19.50;;;-3.80;99.90;;;;;;6189676;23;20338;-79
2022/12/13 05:59:39;;;;;;;44.92;19.52;;;-3.80;99.90;;;;;;6216746;23;20086;-77
2022/12/13 06:02:04;;;;;;;44.83;19.13;;;-3.70;99.90;;;;;;6189492;23;20448;-79
2022/12/13 06:04:30;;;;;;;40.63;19.48;;;-3.70;99.90;;;;;;6216549;23;20338;-79
2022/12/13 06:06:56;;;;;;;45.75;18.77;;;-3.70;99.90;;;;;;6216948;23;20009;-78
2022/12/13 06:09:22;;;;;;;47.20;20.95;;;-3.60;99.90;;;;;;6188519;23;20023;-81
2022/12/13 06:11:48;;;;;;;43.83;20.27;;;-3.60;99.90;;;;;;6188586;23;20096;-77
2022/12/13 06:14:15;;;;;;;41.53;19.80;;;-3.60;99.90;;;;;;6188504;23;20016;-76
2022/12/13 06:16:40;;;;;;;46.22;19.27;;;-3.60;99.90;;;;;;6215393;23;20008;-78
2022/12/13 06:19:07;;;;;;;47.47;21.15;;;-3.60;99.90;;;;;;6188241;23;20091;-77
2022/12/13 06:21:33;;;;;;;42.45;20.42;;;-3.60;99.90;;;;;;6188222;23;20017;-79
2022/12/13 06:23:59;;;;;;;50.72;20.75;;;-3.60;99.90;;;;;;6215080;23;20135;-78
2022/12/13 06:26:25;;;;;;;52.60;21.45;;;-3.60;99.90;;;;;;6188310;23;20507;-77
2022/12/13 06:28:50;;;;;;;43.63;20.10;;;-3.60;99.90;;;;;;6187977;23;20385;-78
2022/12/13 06:31:16;;;;;;;44.05;19.80;;;-3.60;99.90;;;;;;6187990;23;20021;-77
2022/12/13 06:33:42;;;;;;;45.80;20.13;;;-3.60;99.90;;;;;;6188156;23;20064;-78
2022/12/13 06:36:09;;;;;;;46.70;19.33;;;-3.60;99.90;;;;;;6215085;23;20055;-79
2022/12/13 06:38:35;;;;;;;45.42;20.55;;;-3.60;99.90;;;;;;6215045;23;20781;-79
2022/12/13 06:41:16;;;;;;;44.28;19.70;;;-3.70;99.90;;;;;;6214965;23;20020;-79
2022/12/13 06:43:43;;;;;;;42.47;18.98;;;-3.70;99.90;;;;;;6188199;23;20024;-79
2022/12/13 06:46:09;;;;;;;45.33;19.08;;;-3.70;99.90;;;;;;6188184;23;20039;-79
2022/12/13 06:48:35;;;;;;;52.25;20.80;;;-3.80;99.90;;;;;;6215883;23;20470;-81
2022/12/13 06:51:05;;;;;;;43.95;20.13;;;-3.80;99.90;;;;;;6189419;23;20405;-80
2022/12/13 06:53:31;;;;;;;46.78;19.77;;;-3.80;99.90;;;;;;6189419;23;20339;-78
2022/12/13 06:56:03;;;;;;;46.67;18.65;;;-3.90;99.90;;;;;;6188593;23;20331;-78
2022/12/13 06:58:29;;;;;;;47.97;20.20;;;-3.80;99.90;;;;;;6187395;23;20032;-79
2022/12/13 07:01:16;;;;;;;41.50;18.92;;;-3.80;99.90;;;;;;6187471;23;20012;-80
2022/12/13 07:03:42;;;;;;;48.83;19.48;;;-3.80;99.90;;;;;;6188522;23;20036;-79
2022/12/13 07:06:19;;;;;;;41.92;19.55;;;-3.80;99.90;;;;;;6215140;23;20024;-77
2022/12/13 07:08:51;;;;;;;46.33;19.55;;;-3.70;99.90;;;;;;6187857;23;20019;-79
2022/12/13 07:11:19;;;;;;;45.65;19.02;;;-3.70;99.90;;;;;;6188510;23;20095;-79
2022/12/13 07:13:45;;;;;;;46.70;19.95;;;-3.70;99.90;;;;;;6163799;23;20024;-78
2022/12/13 07:16:11;;;;;;;45.53;19.27;;;-3.70;99.90;;;;;;6188139;23;20013;-78
2022/12/13 07:18:37;;;;;;;46.08;20.05;;;-3.70;99.90;;;;;;6215382;23;20271;-79
2022/12/13 07:21:05;;;;;;;51.45;19.55;;;-3.70;99.90;;;;;;6188598;23;20020;-79
2022/12/13 07:23:30;;;;;;;48.45;19.63;;;-3.80;99.90;;;;;;6188840;23;20012;-78
2022/12/13 07:25:56;;;;;;;52.08;20.08;;;-3.80;99.90;;;;;;6215134;23;20020;-78
2022/12/13 07:28:22;;;;;;;44.63;19.25;;;-3.80;99.90;;;;;;6215328;23;20008;-81
2022/12/13 07:30:48;;;;;;;41.58;17.98;;;-3.80;99.90;;;;;;6189363;23;20048;-79
2022/12/13 07:33:14;;;;;;;42.75;19.40;;;-3.90;99.90;;;;;;6215432;23;20009;-79
2022/12/13 07:35:40;;;;;;;42.60;18.85;;;-3.90;99.90;;;;;;6216479;23;20059;-77
2022/12/13 07:38:06;;;;;;;43.80;19.90;;;-3.90;99.90;;;;;;6190502;23;20020;-78
2022/12/13 07:40:34;;;;;;;48.00;20.92;;;-3.80;99.90;;;;;;6190089;23;20052;-78
2022/12/13 07:42:59;;;;;;;44.20;19.48;;;-3.90;99.90;;;;;;6190301;23;20043;-76
2022/12/13 07:45:25;;;;;;;43.10;19.90;;;-3.90;99.90;;;;;;6190250;23;20021;-77
2022/12/13 07:47:51;;;;;;;48.65;21.58;;;-3.90;99.90;;;;;;6216951;23;20012;-79
2022/12/13 07:50:19;;;;;;;48.53;20.33;;;-3.90;99.90;;;;;;6189831;23;20017;-79
2022/12/13 07:52:47;;;;;;;48.40;21.17;;;-3.90;99.90;;;;;;6190504;23;20088;-77
2022/12/13 07:55:13;;;;;;;52.38;22.63;;;-3.90;99.90;;;;;;6190115;23;20012;-78
2022/12/13 07:57:39;;;;;;;48.03;20.50;;;-3.90;99.90;;;;;;6165338;23;20013;-78
2022/12/13 08:00:05;;;;;;;47.50;22.10;;;-3.90;99.90;;;;;;6191032;23;20174;-78
2022/12/13 08:02:31;;;;;;;50.67;22.13;;;-3.80;99.90;;;;;;6190935;23;20346;-78
2022/12/13 08:05:10;;;;;;;47.15;21.20;;;-3.80;99.90;;;;;;6190626;23;20020;-79
2022/12/13 08:07:36;;;;;;;44.33;19.92;;;-3.80;99.90;;;;;;6189793;23;20024;-76
2022/12/13 08:10:02;;;;;;;42.92;19.05;;;-3.80;99.90;;;;;;6189775;23;20012;-76
2022/12/13 08:12:27;;;;;;;44.38;19.08;;;-3.80;99.90;;;;;;6189469;23;20049;-77
2022/12/13 08:14:54;;;;;;;49.35;20.13;;;-3.80;99.90;;;;;;6216703;23;20009;-77
2022/12/13 08:17:19;;;;;;;40.95;19.38;;;-3.80;99.90;;;;;;6190909;23;20051;-78
2022/12/13 08:19:45;;;;;;;49.80;20.17;;;-3.70;99.90;;;;;;6190682;23;20020;-77
2022/12/13 08:22:13;;;;;;;48.00;21.35;;;-3.80;99.90;;;;;;6165846;23;20017;-78
2022/12/13 08:24:39;;;;;;;48.30;20.48;;;-3.70;99.90;;;;;;6218053;23;20092;-78
2022/12/13 08:27:04;;;;;;;49.95;22.20;;;-3.60;99.90;;;;;;6191472;23;20430;-77
2022/12/13 08:29:31;;;;;;;50.17;21.13;;;-3.60;99.90;;;;;;6191706;23;20084;-78
2022/12/13 08:31:57;;;;;;;54.13;22.27;;;-3.60;99.90;;;;;;6190902;23;20027;-78
2022/12/13 08:34:23;;;;;;;55.47;22.52;;;-3.60;99.90;;;;;;6190919;23;20016;-77
2022/12/13 08:36:48;;;;;;;53.30;22.80;;;-3.60;99.90;;;;;;6223813;23;20008;-74
2022/12/13 08:39:14;;;;;;;53.00;23.02;;;-3.50;99.90;;;;;;6196958;23;20092;-78
2022/12/13 08:41:39;;;;;;;53.40;22.92;;;-3.40;99.90;;;;;;6217975;23;20017;-77
2022/12/13 08:44:05;;;;;;;53.72;23.17;;;-3.30;99.90;;;;;;6218285;23;20408;-78
2022/12/13 08:46:31;;;;;;;55.40;23.58;;;-3.20;99.90;;;;;;6191637;23;20005;-78
2022/12/13 08:48:56;;;;;;;53.95;22.33;;;-3.10;99.90;;;;;;6191516;23;20059;-77
2022/12/13 08:51:23;;;;;;;53.20;20.45;;;-2.90;99.90;;;;;;6165527;23;20028;-78
2022/12/13 08:53:50;;;;;;;53.97;23.23;;;-2.80;99.90;;;;;;6190916;23;20012;-78
2022/12/13 08:56:17;;;;;;;49.75;22.55;;;-2.80;99.90;;;;;;6190024;23;20500;-78
2022/12/13 08:58:47;;;;;;;49.30;21.90;;;-2.80;99.90;;;;;;6190109;23;20035;-77
2022/12/13 09:01:13;;;;;;;50.58;22.02;;;-2.80;99.90;;;;;;6189837;23;20485;-77
2022/12/13 09:03:38;;;;;;;51.92;21.75;;;-2.80;99.90;;;;;;6190218;23;20041;-78
2022/12/13 09:06:15;;;;;;;57.30;23.92;;;-2.90;99.90;;;;;;6190101;23;20012;-79
2022/12/13 09:08:42;;;;;;;50.22;22.92;;;-2.90;99.90;;;;;;6165719;23;20012;-78
2022/12/13 09:11:10;;;;;;;52.90;23.65;;;-2.90;99.90;;;;;;6190482;23;20020;-79
2022/12/13 09:13:36;;;;;;;53.90;23.17;;;-2.80;99.90;;;;;;6216993;23;20019;-78
2022/12/13 09:16:08;;;;;;;56.45;23.23;;;-2.80;99.90;;;;;;6190267;23;20013;-78
2022/12/13 09:18:34;;;;;;;56.42;23.65;;;-2.80;99.90;;;;;;6190398;23;20071;-77
2022/12/13 09:21:00;;;;;;;51.78;21.77;;;-2.80;99.90;;;;;;6190459;23;20005;-77
2022/12/13 09:23:25;;;;;;;52.15;23.08;;;-2.70;99.90;;;;;;6190238;23;20016;-77
2022/12/13 09:25:55;;;;;;;55.08;24.00;;;-2.70;99.90;;;;;;6190226;23;20450;-79
2022/12/13 09:28:21;;;;;;;59.42;24.23;;;-2.70;99.90;;;;;;6189880;23;20008;-77
2022/12/13 09:30:48;;;;;;;55.15;24.38;;;-2.70;99.90;;;;;;6217081;23;20009;-77
2022/12/13 09:33:13;;;;;;;52.75;23.83;;;-2.60;99.90;;;;;;6190435;23;20016;-78
2022/12/13 09:35:39;;;;;;;52.90;23.77;;;-2.60;99.90;;;;;;6216994;23;20019;-77
2022/12/13 09:38:04;;;;;;;55.17;24.02;;;-2.50;99.90;;;;;;6189822;23;20405;-78
2022/12/13 09:40:33;;;;;;;58.95;24.42;;;-2.50;99.90;;;;;;6216412;23;20017;-78
2022/12/13 09:43:00;;;;;;;61.60;25.23;;;-2.50;99.90;;;;;;6189631;23;20016;-78
2022/12/13 09:45:28;;;;;;;60.83;26.40;;;-2.40;99.90;;;;;;6189510;23;20027;-79
2022/12/13 09:47:58;;;;;;;62.00;25.10;;;-2.40;99.90;;;;;;6189636;23;20442;-78
2022/12/13 09:50:34;;;;;;;59.92;25.15;;;-2.30;99.90;;;;;;6190402;23;20063;-80
2022/12/13 09:53:00;;;;;;;;;;;-2.30;99.90;;;;;;6190571;23;20023;-77
2022/12/13 09:55:30;;;;;;;51.42;24.02;;;-2.20;99.90;;;;;;6187966;23;19912;-76
2022/12/13 09:57:57;;;;;;;56.08;24.20;;;-2.20;99.90;;;;;;6161926;23;20016;-77
2022/12/13 10:00:28;;;;;;;56.35;24.27;;;-2.10;99.90;;;;;;6186919;23;20058;-77
2022/12/13 10:02:57;;;;;;;54.15;23.92;;;-2.10;99.90;;;;;;6214764;23;20012;-79
2022/12/13 10:05:25;;;;;;;53.92;23.48;;;-2.00;99.90;;;;;;6214757;23;20017;-76
2022/12/13 10:07:54;;;;;;;49.80;24.20;;;-1.90;99.90;;;;;;6187863;23;20023;-76
2022/12/13 10:10:20;;;;;;;60.03;25.48;;;-1.90;99.90;;;;;;6187520;23;20018;-76
2022/12/13 10:12:53;;;;;;;53.63;24.67;;;-1.80;99.90;;;;;;6216102;23;20083;-76
2022/12/13 10:15:20;;;;;;;51.33;24.60;;;-1.80;99.90;;;;;;6189424;23;20434;-77
2022/12/13 10:17:48;;;;;;;49.92;23.52;;;-1.70;99.90;;;;;;6189499;23;20085;-76
2022/12/13 10:20:20;;;;;;;60.80;24.90;;;-1.60;99.90;;;;;;6215929;23;20016;-77
2022/12/13 10:22:46;;;;;;;51.88;24.13;;;-1.60;99.90;;;;;;6189699;23;20472;-77
2022/12/13 10:25:13;;;;;;;54.60;23.73;;;-1.50;99.90;;;;;;6189612;23;20394;-76
2022/12/13 10:27:42;;;;;;;56.50;24.80;;;-1.40;99.90;;;;;;6216041;23;20451;-76
2022/12/13 10:30:25;;;;;;;57.03;25.88;;;-1.40;99.90;;;;;;6189332;23;20062;-77
2022/12/13 10:32:54;;;;;;;52.70;25.17;;;-1.30;99.90;;;;;;6189614;23;20025;-77
2022/12/13 10:35:24;;;;;;;52.10;24.83;;;-1.20;99.90;;;;;;6189318;23;20009;-77
2022/12/13 10:37:50;;;;;;;54.60;24.27;;;-1.10;99.90;;;;;;6189294;23;20062;-77
2022/12/13 10:40:31;;;;;;;53.53;24.85;;;-1.00;99.90;;;;;;6216040;23;20017;-77
2022/12/13 10:43:06;;;;;;;51.80;24.83;;;-0.90;99.90;;;;;;6216741;23;20040;-77
2022/12/13 10:45:32;;;;;;;52.40;25.10;;;-0.80;99.90;;;;;;6189407;23;20036;-77
2022/12/13 10:47:58;;;;;;;51.17;24.77;;;-0.60;99.90;;;;;;6216354;23;20009;-77
2022/12/13 10:50:27;;;;;;;54.60;26.65;;;-0.50;99.90;;;;;;6215846;23;20015;-77
2022/12/13 10:52:54;;;;;;;50.83;25.48;;;-0.40;99.90;;;;;;6216479;23;20071;-77
2022/12/13 10:55:33;;;;;;;59.22;25.13;;;-0.30;99.90;;;;;;6189313;23;20028;-77
2022/12/13 10:58:05;;;;;;;50.50;23.25;;;-0.20;99.90;;;;;;6189150;23;20516;-77
2022/12/13 11:00:44;;;;;;;50.90;25.48;;;-0.10;99.90;;;;;;6215891;23;20065;-77
2022/12/13 11:03:27;;;;;;;48.00;23.50;;;0.00;99.90;;;;;;6189386;23;20013;-78
2022/12/13 11:06:05;;;;;;;47.60;21.95;;;0.10;99.90;;;;;;6216239;23;20092;-79
2022/12/13 11:08:31;;;;;;;46.75;22.48;;;0.20;99.90;;;;;;6189058;23;20468;-78
2022/12/13 11:11:05;;;;;;;50.15;24.25;;;0.40;99.90;;;;;;6188903;23;20017;-77
2022/12/13 11:13:50;;;;;;;52.15;23.38;;;0.50;99.90;;;;;;6189937;23;20055;-79
2022/12/13 11:16:26;;;;;;;43.47;21.90;;;0.50;99.90;;;;;;6189560;23;20016;-78
2022/12/13 11:19:05;;;;;;;41.55;22.30;;;0.70;99.90;;;;;;6189459;23;20076;-78
2022/12/13 11:21:35;;;;;;;45.28;22.35;;;0.80;99.90;;;;;;6164841;23;20019;-78
2022/12/13 11:24:04;;;;;;;47.60;23.20;;;0.90;99.90;;;;;;6216302;23;20044;-79
2022/12/13 11:26:34;;;;;;;42.22;21.35;;;1.00;99.90;;;;;;6189258;23;20016;-78
2022/12/13 11:29:52;;;;;;;44.47;21.15;;;1.10;99.90;;;;;;6188973;23;20079;-78
2022/12/13 11:32:27;;;;;;;44.33;21.52;;;1.20;99.90;;;;;;6131458;23;20023;-79
2022/12/13 11:35:11;;;;;;;42.73;21.67;;;1.30;99.90;;;;;;6189643;23;20017;-79
2022/12/13 11:37:59;;;;;;;43.42;22.02;;;1.40;99.90;;;;;;6190277;23;20020;-79
2022/12/13 11:40:31;;;;;;;41.10;21.15;;;1.60;99.90;;;;;;6217068;23;20027;-82
2022/12/13 11:43:04;;;;;;;46.08;22.13;;;1.70;99.90;;;;;;6216771;23;20013;-80
2022/12/13 11:45:38;;;;;;;45.55;22.35;;;1.80;99.90;;;;;;6191410;23;20084;-80
2022/12/13 11:49:01;;;;;;;44.08;21.58;;;1.90;99.90;;;;;;6190129;23;20027;-79
2022/12/13 11:51:36;;;;;;;38.90;20.58;;;2.00;99.90;;;;;;6071503;23;20018;-80
2022/12/13 11:54:07;;;;;;;40.78;22.08;;;2.00;99.90;;;;;;6071616;23;20018;-80
2022/12/13 11:56:38;;;;;;;41.55;21.95;;;2.00;99.90;;;;;;6164483;23;20013;-80
2022/12/13 11:59:37;;;;;;;45.08;24.00;;;2.00;99.90;;;;;;6190697;23;20446;-80
2022/12/13 12:02:33;;;;;;;43.55;21.90;;;2.20;99.90;;;;;;6189243;23;20524;-80
2022/12/13 12:05:06;;;;;;;43.55;22.38;;;2.30;99.90;;;;;;6189740;23;20013;-81
2022/12/13 12:07:50;;;;;;;45.58;22.52;;;2.40;99.90;;;;;;6216517;23;20012;-82
2022/12/13 12:10:19;;;;;;;43.70;23.83;;;2.50;99.90;;;;;;6216280;23;20104;-81
2022/12/13 12:12:50;;;;;;;47.40;25.08;;;2.50;99.90;;;;;;6216208;23;20342;-80
2022/12/13 12:15:28;;;;;;;42.90;23.35;;;2.60;99.90;;;;;;6217206;23;20058;-78
2022/12/13 12:17:57;;;;;;;45.00;22.60;;;2.60;99.90;;;;;;6189412;23;20019;-79
2022/12/13 12:20:53;;;;;;;42.92;22.90;;;2.60;99.90;;;;;;6164151;23;20342;-79
2022/12/13 12:23:40;;;;;;;40.75;21.38;;;2.60;99.90;;;;;;6217558;23;20012;-78
2022/12/13 12:26:13;;;;;;;41.55;21.60;;;2.60;99.90;;;;;;6217265;23;20040;-78
2022/12/13 12:29:11;;;;;;;43.50;22.95;;;2.70;99.90;;;;;;6217386;23;20067;-78
2022/12/13 12:31:36;;;;;;;41.97;22.08;;;2.70;99.90;;;;;;6190652;23;20017;-79
2022/12/13 12:34:16;;;;;;;40.85;21.10;;;2.70;99.90;;;;;;6190505;23;20024;-79
2022/12/13 12:36:53;;;;;;;35.08;19.48;;;2.80;99.90;;;;;;6217478;23;20059;-81
2022/12/13 12:39:29;;;;;;;36.38;18.75;;;2.70;99.90;;;;;;6217680;23;20044;-81
2022/12/13 12:42:12;;;;;;;;;;;2.60;99.90;;;;;;6218071;23;20021;-79
2022/12/13 12:44:49;;;;;;;37.38;18.98;;;2.70;99.90;;;;;;6190787;23;19965;-79
2022/12/13 12:47:38;;;;;;;34.85;18.80;;;2.80;99.90;;;;;;6218342;23;20009;-80
2022/12/13 12:50:34;;;;;;;32.92;18.45;;;2.80;99.90;;;;;;6189886;23;20167;-79
2022/12/13 12:53:39;;;;;;;42.45;20.08;;;3.00;99.90;;;;;;6217964;23;20012;-80
2022/12/13 12:56:22;;;;;;;35.88;18.73;;;3.00;99.90;;;;;;6189547;23;20430;-79
2022/12/13 12:59:19;;;;;;;36.80;19.02;;;3.20;99.90;;;;;;6190399;23;20024;-78
2022/12/13 13:02:16;;;;;;;32.75;18.08;;;3.40;99.90;;;;;;6190025;23;20008;-81
2022/12/13 13:04:52;;;;;;;33.50;18.95;;;3.70;99.90;;;;;;6140710;23;20016;-78
2022/12/13 13:07:28;;;;;;;;;;;3.70;99.90;;;;;;6191000;23;20083;-79
2022/12/13 13:09:55;;;;;;;35.65;18.60;;;3.50;99.90;;;;;;6189962;23;19919;-79
2022/12/13 13:12:23;;;;;;;36.08;18.50;;;3.30;99.90;;;;;;6189985;23;20021;-79
2022/12/13 13:14:48;;;;;;;35.20;18.42;;;3.30;99.90;;;;;;6216727;23;20431;-79
2022/12/13 13:17:20;;;;;;;33.25;18.80;;;3.30;99.90;;;;;;6190091;23;20023;-79
2022/12/13 13:20:07;;;;;;;36.25;19.13;;;3.20;99.90;;;;;;6190351;23;20020;-77
2022/12/13 13:22:37;;;;;;;30.60;16.98;;;3.10;99.90;;;;;;6174410;23;20126;-78
2022/12/13 13:25:06;;;;;;;35.03;18.00;;;3.20;99.90;;;;;;6217223;23;20008;-78
2022/12/13 13:27:37;;;;;;;35.13;17.73;;;3.50;99.90;;;;;;6189862;23;20501;-78
2022/12/13 13:30:07;;;;;;;30.65;17.45;;;3.40;99.90;;;;;;6189922;23;20012;-79
2022/12/13 13:32:37;;;;;;;34.17;18.00;;;3.10;99.90;;;;;;6189196;23;20167;-77
2022/12/13 13:35:31;;;;;;;34.00;17.98;;;3.00;99.90;;;;;;6191645;23;20005;-75
2022/12/13 13:37:57;;;;;;;35.60;18.25;;;2.90;99.90;;;;;;6171939;23;20013;-72
2022/12/13 13:40:37;;;;;;;33.45;17.02;;;3.10;99.90;;;;;;6217330;23;20013;-75
2022/12/13 13:43:08;;;;;;;31.88;16.65;;;3.30;99.90;;;;;;6217031;23;20420;-82
2022/12/13 13:46:01;;;;;;;33.65;18.10;;;3.40;99.90;;;;;;6189627;23;20021;-77
2022/12/13 13:48:48;;;;;;;32.80;16.80;;;3.50;99.90;;;;;;6216360;23;20434;-74
2022/12/13 13:52:02;;;;;;;34.10;16.15;;;3.30;99.90;;;;;;6190104;23;20020;-79
2022/12/13 13:55:04;;;;;;;33.22;17.10;;;3.00;99.90;;;;;;6165603;23;20473;-80
2022/12/13 13:58:07;;;;;;;34.15;17.50;;;2.80;99.90;;;;;;6217630;23;20012;-79
2022/12/13 14:01:04;;;;;;;32.70;16.90;;;2.50;99.90;;;;;;6189449;23;20091;-79
2022/12/13 14:04:07;;;;;;;34.00;17.58;;;2.50;99.90;;;;;;6165038;23;20023;-80
2022/12/13 14:06:58;;;;;;;34.30;18.35;;;2.60;99.90;;;;;;6190078;23;20016;-80
2022/12/13 14:09:57;;;;;;;34.08;17.20;;;2.60;99.90;;;;;;6189681;23;20016;-79
2022/12/13 14:13:03;;;;;;;34.10;18.10;;;2.40;99.90;;;;;;6189739;23;20316;-79
2022/12/13 14:16:07;;;;;;;31.70;17.23;;;2.30;99.90;;;;;;6189954;23;20087;-77
2022/12/13 14:19:14;;;;;;;37.75;19.52;;;2.10;99.90;;;;;;6189710;23;20016;-76
2022/12/13 14:21:49;;;;;;;47.78;21.27;;;1.80;99.90;;;;;;6119559;23;20020;-76
2022/12/13 14:24:41;;;;;;;38.63;21.35;;;1.70;99.90;;;;;;6189778;23;20331;-78
2022/12/13 14:27:36;;;;;;;42.75;20.85;;;1.50;99.90;;;;;;6216270;23;20079;-75
2022/12/13 14:30:03;;;;;;;38.45;20.80;;;1.20;99.90;;;;;;6189230;23;20028;-76
2022/12/13 14:32:34;;;;;;;42.72;20.90;;;1.00;99.90;;;;;;6189113;23;20039;-75
2022/12/13 14:35:00;;;;;;;46.10;23.08;;;0.80;99.90;;;;;;6216235;23;20036;-76
2022/12/13 14:37:37;;;;;;;42.05;23.13;;;0.70;99.90;;;;;;6215637;23;20020;-75
2022/12/13 14:40:26;;;;;;;42.40;21.67;;;0.60;99.90;;;;;;6189040;23;20028;-75
2022/12/13 14:42:55;;;;;;;44.65;21.70;;;0.40;99.90;;;;;;6215819;23;20310;-75
2022/12/13 14:45:28;;;;;;;46.80;22.58;;;0.30;99.90;;;;;;6188870;23;20027;-76
2022/12/13 14:47:56;;;;;;;44.80;23.20;;;0.20;99.90;;;;;;6189747;23;20016;-75
2022/12/13 14:50:24;;;;;;;43.88;22.88;;;0.10;99.90;;;;;;6189871;23;20031;-76
2022/12/13 14:52:50;;;;;;;48.95;23.67;;;0.00;99.90;;;;;;6189630;23;20394;-76
2022/12/13 14:55:35;;;;;;;46.35;23.75;;;-0.10;99.90;;;;;;6216607;23;20020;-77
2022/12/13 14:58:14;;;;;;;48.53;24.00;;;-0.10;99.90;;;;;;6189493;23;20032;-77
2022/12/13 15:00:40;;;;;;;51.00;23.33;;;-0.20;99.90;;;;;;6215966;23;20015;-75
2022/12/13 15:03:06;;;;;;;46.03;24.13;;;-0.30;99.90;;;;;;6215803;23;20450;-75
2022/12/13 15:05:38;;;;;;;49.72;24.90;;;-0.40;99.90;;;;;;6216023;23;20334;-76
2022/12/13 15:08:08;;;;;;;53.78;27.33;;;-0.40;99.90;;;;;;6216448;23;20008;-76
2022/12/13 15:10:50;;;;;;;55.30;26.95;;;-0.50;99.90;;;;;;6216262;23;20009;-76
2022/12/13 15:13:43;;;;;;;55.25;26.08;;;-0.50;99.90;;;;;;6215780;23;20023;-77
2022/12/13 15:16:27;;;;;;;58.38;27.95;;;-0.60;99.90;;;;;;6189273;23;20020;-76
2022/12/13 15:19:14;;;;;;;55.10;26.25;;;-0.60;99.90;;;;;;6189205;23;20020;-77
2022/12/13 15:21:40;;;;;;;56.35;26.75;;;-0.60;99.90;;;;;;6189855;23;20067;-78
2022/12/13 15:24:06;;;;;;;57.05;27.77;;;-0.70;99.90;;;;;;6189158;23;20385;-76
2022/12/13 15:26:33;;;;;;;58.25;27.83;;;-0.70;99.90;;;;;;6164303;23;20021;-76
2022/12/13 15:29:03;;;;;;;56.15;27.45;;;-0.80;99.90;;;;;;6189135;23;20056;-75
2022/12/13 15:31:32;;;;;;;58.00;29.00;;;-0.80;99.90;;;;;;6215357;23;20312;-75
2022/12/13 15:34:22;;;;;;;61.25;28.00;;;-0.80;99.90;;;;;;6189135;23;20012;-76
2022/12/13 15:36:48;;;;;;;55.88;27.27;;;-0.80;99.90;;;;;;6216018;23;20338;-75
2022/12/13 15:39:15;;;;;;;60.88;27.08;;;-0.90;99.90;;;;;;6188949;23;20021;-77
2022/12/13 15:41:46;;;;;;;61.22;29.25;;;-0.90;99.90;;;;;;6188939;23;20447;-76
2022/12/13 15:44:19;;;;;;;59.10;27.90;;;-0.90;99.90;;;;;;6216261;23;20343;-76
2022/12/13 15:46:48;;;;;;;69.22;30.25;;;-0.90;99.90;;;;;;6189146;23;20059;-75
2022/12/13 15:49:33;;;;;;;74.70;35.50;;;-1.00;99.90;;;;;;6188865;23;20012;-76
2022/12/13 15:52:20;;;;;;;85.05;38.53;;;-1.00;99.90;;;;;;6189057;23;20035;-74
2022/12/13 15:55:20;;;;;;;66.22;31.33;;;-1.10;99.90;;;;;;6214569;23;20016;-76
2022/12/13 15:57:52;;;;;;;62.33;29.60;;;-1.10;99.90;;;;;;6165528;23;20016;-76
2022/12/13 16:00:18;;;;;;;61.90;28.27;;;-1.10;99.90;;;;;;6190788;23;20052;-76
2022/12/13 16:03:13;;;;;;;63.50;28.02;;;-1.10;99.90;;;;;;6217569;23;20070;-74
2022/12/13 16:05:50;;;;;;;58.05;26.88;;;-1.10;99.90;;;;;;6180563;23;20017;-75
2022/12/13 16:08:27;;;;;;;60.28;26.70;;;-1.20;99.90;;;;;;6190891;23;20013;-75
2022/12/13 16:10:54;;;;;;;54.80;26.80;;;-1.20;99.90;;;;;;6217736;23;20055;-76
2022/12/13 16:13:26;;;;;;;55.45;27.95;;;-1.20;99.90;;;;;;6190846;23;20095;-77
2022/12/13 16:15:54;;;;;;;61.70;28.27;;;-1.20;99.90;;;;;;6191209;23;20017;-76
2022/12/13 16:18:26;;;;;;;64.22;28.58;;;-1.30;99.90;;;;;;6217739;23;20019;-75
2022/12/13 16:20:52;;;;;;;60.90;28.63;;;-1.30;99.90;;;;;;6217825;23;20017;-75
2022/12/13 16:23:17;;;;;;;56.97;26.65;;;-1.30;99.90;;;;;;6217422;23;20013;-76
2022/12/13 16:25:43;;;;;;;56.55;26.23;;;-1.30;99.90;;;;;;6190770;23;20106;-76
2022/12/13 16:28:13;;;;;;;58.65;25.90;;;-1.30;99.90;;;;;;6190708;23;20016;-76
2022/12/13 16:31:08;;;;;;;55.15;26.23;;;-1.40;99.90;;;;;;6217047;23;20008;-76
2022/12/13 16:33:34;;;;;;;61.72;28.10;;;-1.50;99.90;;;;;;6191155;23;20070;-76
2022/12/13 16:36:00;;;;;;;52.70;25.90;;;-1.50;99.90;;;;;;6217533;23;20013;-75
2022/12/13 16:38:26;;;;;;;52.65;26.33;;;-1.60;99.90;;;;;;6217643;23;20047;-75
2022/12/13 16:40:54;;;;;;;52.78;25.38;;;-1.60;99.90;;;;;;6217232;23;20016;-75
2022/12/13 16:43:23;;;;;;;56.17;25.17;;;-1.70;99.90;;;;;;6217982;23;20012;-75
2022/12/13 16:45:50;;;;;;;62.20;27.17;;;-1.70;99.90;;;;;;6217665;23;20016;-76
2022/12/13 16:48:17;;;;;;;61.47;27.27;;;-1.70;99.90;;;;;;6217890;23;20363;-74
2022/12/13 16:50:49;;;;;;;56.45;27.13;;;-1.70;99.90;;;;;;6217417;23;20417;-76
2022/12/13 16:53:15;;;;;;;59.88;27.38;;;-1.70;99.90;;;;;;6217244;23;20070;-76
2022/12/13 16:55:41;;;;;;;60.83;26.35;;;-1.70;99.90;;;;;;6190497;23;20308;-76
2022/12/13 16:58:11;;;;;;;61.25;26.10;;;-1.80;99.90;;;;;;6190591;23;20044;-77
2022/12/13 17:00:38;;;;;;;57.38;26.58;;;-1.80;99.90;;;;;;6190430;23;20016;-76